createdAt,value
2022-10-18T00:02:25.798Z,0.90
2022-10-18T00:04:52.372Z,1.30
2022-10-18T00:07:18.986Z,2.15
2022-10-18T00:09:45.977Z,1.92
2022-10-18T00:12:12.625Z,1.35
2022-10-18T00:14:39.266Z,2.40
2022-10-18T00:17:05.860Z,1.05
2022-10-18T00:19:32.813Z,1.48
2022-10-18T00:21:59.394Z,0.80
2022-10-18T00:24:26.190Z,1.23
2022-10-18T00:26:52.741Z,1.33
2022-10-18T00:29:19.347Z,1.85
2022-10-18T00:31:46.141Z,2.15
2022-10-18T00:34:15.699Z,1.17
2022-10-18T00:36:43.763Z,0.80
2022-10-18T00:39:16.648Z,0.93
2022-10-18T00:41:43.949Z,1.75
2022-10-18T00:46:48.804Z,1.08
2022-10-18T00:49:21.054Z,0.73
2022-10-18T00:51:53.593Z,1.05
2022-10-18T00:54:20.948Z,1.00
2022-10-18T00:56:47.726Z,1.10
2022-10-18T00:59:16.059Z,0.70
2022-10-18T01:01:43.246Z,0.95
2022-10-18T01:04:10.099Z,0.93
2022-10-18T01:17:27.514Z,1.45
2022-10-18T01:20:34.064Z,1.35
2022-10-18T01:23:09.300Z,2.17
2022-10-18T01:25:48.222Z,1.98
2022-10-18T01:31:21.512Z,3.17
2022-10-18T01:34:09.542Z,2.45
2022-10-18T01:36:40.640Z,2.33
2022-10-18T01:39:12.503Z,2.00
2022-10-18T01:41:43.373Z,3.13
2022-10-18T01:44:18.594Z,3.33
2022-10-18T01:46:47.042Z,2.50
2022-10-18T01:49:14.052Z,2.20
2022-10-18T01:51:40.689Z,2.28
2022-10-18T01:54:07.334Z,2.28
2022-10-18T02:04:54.406Z,1.33
2022-10-18T02:10:08.283Z,1.17
2022-10-18T02:12:37.180Z,1.30
2022-10-18T02:15:06.115Z,1.08
2022-10-18T02:17:33.444Z,1.00
2022-10-18T02:20:02.501Z,0.98
2022-10-18T02:22:33.048Z,0.57
2022-10-18T02:25:05.682Z,0.95
2022-10-18T02:27:32.477Z,1.15
2022-10-18T02:29:59.182Z,0.80
2022-10-18T02:35:25.187Z,0.93
2022-10-18T02:37:54.006Z,1.10
2022-10-18T02:40:21.063Z,1.20
2022-10-18T02:42:50.690Z,1.30
2022-10-18T02:45:17.700Z,1.25
2022-10-18T02:47:44.600Z,1.63
2022-10-18T02:50:11.474Z,1.25
2022-10-18T02:52:38.211Z,1.27
2022-10-18T02:55:06.010Z,1.05
2022-10-18T02:57:32.863Z,1.33
2022-10-18T02:59:59.900Z,0.77
2022-10-18T03:02:26.616Z,1.20
2022-10-18T03:04:53.209Z,1.17
2022-10-18T03:07:19.712Z,1.70
2022-10-18T03:09:46.294Z,1.00
2022-10-18T03:12:12.915Z,1.30
2022-10-18T03:14:39.464Z,1.27
2022-10-18T03:17:06.110Z,1.02
2022-10-18T03:19:32.774Z,1.95
2022-10-18T03:21:59.309Z,0.88
2022-10-18T03:24:26.052Z,1.13
2022-10-18T03:26:52.743Z,1.30
2022-10-18T03:29:19.334Z,0.95
2022-10-18T03:31:45.995Z,1.48
2022-10-18T03:34:12.616Z,0.85
2022-10-18T03:36:41.385Z,1.60
2022-10-18T03:39:08.014Z,1.92
2022-10-18T03:41:34.569Z,0.73
2022-10-18T03:44:01.090Z,0.90
2022-10-18T03:46:27.674Z,0.70
2022-10-18T03:48:54.270Z,0.80
2022-10-18T03:51:20.892Z,1.10
2022-10-18T03:53:47.477Z,1.55
2022-10-18T03:56:14.483Z,0.90
2022-10-18T03:58:41.020Z,1.05
2022-10-18T04:01:07.573Z,0.88
2022-10-18T04:03:34.141Z,0.80
2022-10-18T04:06:00.976Z,0.90
2022-10-18T04:08:27.538Z,1.58
2022-10-18T04:10:54.158Z,1.00
2022-10-18T04:13:20.764Z,1.00
2022-10-18T04:15:47.292Z,1.00
2022-10-18T04:18:13.878Z,1.40
2022-10-18T04:20:40.616Z,1.27
2022-10-18T04:23:07.451Z,0.85
2022-10-18T04:25:34.128Z,0.90
2022-10-18T04:28:00.831Z,1.15
2022-10-18T04:30:27.534Z,0.90
2022-10-18T04:32:54.142Z,0.95
2022-10-18T04:35:24.609Z,0.93
2022-10-18T04:37:51.294Z,1.13
2022-10-18T04:40:18.014Z,1.30
2022-10-18T04:42:44.630Z,0.90
2022-10-18T04:45:11.313Z,0.90
2022-10-18T04:47:37.874Z,0.75
2022-10-18T04:50:05.265Z,1.27
2022-10-18T04:52:31.868Z,0.90
2022-10-18T04:54:58.441Z,1.00
2022-10-18T04:57:25.060Z,0.98
2022-10-18T04:59:51.587Z,0.77
2022-10-18T05:02:18.436Z,0.77
2022-10-18T05:04:44.997Z,1.63
2022-10-18T05:07:11.604Z,0.70
2022-10-18T05:09:38.176Z,0.80
2022-10-18T05:12:05.005Z,1.15
2022-10-18T05:14:31.634Z,1.17
2022-10-18T05:16:58.156Z,0.73
2022-10-18T05:19:24.823Z,1.20
2022-10-18T05:21:51.483Z,1.17
2022-10-18T05:24:18.147Z,1.33
2022-10-18T05:26:44.894Z,1.23
2022-10-18T05:29:11.730Z,0.90
2022-10-18T05:31:38.547Z,0.77
2022-10-18T05:34:05.174Z,1.20
2022-10-18T05:36:31.770Z,0.95
2022-10-18T05:39:01.009Z,1.25
2022-10-18T05:41:31.292Z,1.17
2022-10-18T05:43:58.209Z,0.85
2022-10-18T05:46:25.385Z,1.25
2022-10-18T05:48:52.127Z,1.00
2022-10-18T05:51:19.068Z,0.82
2022-10-18T05:53:45.893Z,0.88
2022-10-18T05:56:12.513Z,1.13
2022-10-18T05:58:39.854Z,0.75
2022-10-18T06:01:07.322Z,0.75
2022-10-18T06:03:34.389Z,1.13
2022-10-18T06:06:07.170Z,1.08
2022-10-18T06:08:34.422Z,1.33
2022-10-18T06:11:07.609Z,0.80
2022-10-18T06:13:34.356Z,1.23
2022-10-18T06:16:00.990Z,1.17
2022-10-18T06:18:27.549Z,0.70
2022-10-18T06:20:58.847Z,0.90
2022-10-18T06:23:28.021Z,1.10
2022-10-18T06:25:59.161Z,1.95
2022-10-18T06:28:26.198Z,1.20
2022-10-18T06:30:52.790Z,2.33
2022-10-18T06:33:19.339Z,0.93
2022-10-18T06:35:55.218Z,0.90
2022-10-18T06:38:21.948Z,1.42
2022-10-18T06:40:48.818Z,1.23
2022-10-18T06:43:21.096Z,1.50
2022-10-18T06:45:48.584Z,1.63
2022-10-18T06:48:15.841Z,1.40
2022-10-18T06:50:42.995Z,1.20
2022-10-18T06:53:09.775Z,1.05
2022-10-18T06:55:36.596Z,0.93
2022-10-18T06:58:03.260Z,1.42
2022-10-18T07:00:30.141Z,1.23
2022-10-18T07:02:58.296Z,0.82
2022-10-18T07:05:25.082Z,1.40
2022-10-18T07:07:54.304Z,1.92
2022-10-18T07:10:23.850Z,1.75
2022-10-18T07:12:53.448Z,1.38
2022-10-18T07:15:24.243Z,1.27
2022-10-18T07:17:50.928Z,1.65
2022-10-18T07:20:17.566Z,1.60
2022-10-18T07:22:44.721Z,1.50
2022-10-18T07:25:11.934Z,1.30
2022-10-18T07:27:40.873Z,2.17
2022-10-18T07:30:09.832Z,1.80
2022-10-18T07:32:36.797Z,1.58
2022-10-18T07:35:04.255Z,1.98
2022-10-18T07:37:31.816Z,1.60
2022-10-18T07:39:58.562Z,2.22
2022-10-18T07:42:25.933Z,2.03
2022-10-18T07:44:52.556Z,2.25
2022-10-18T07:47:19.300Z,1.88
2022-10-18T07:49:45.982Z,1.65
2022-10-18T07:52:12.615Z,2.40
2022-10-18T07:54:39.237Z,1.75
2022-10-18T07:57:05.863Z,2.13
2022-10-18T07:59:32.478Z,2.08
2022-10-18T08:01:59.252Z,2.22
2022-10-18T08:04:25.862Z,3.42
2022-10-18T08:06:52.457Z,3.72
2022-10-18T08:09:19.030Z,3.80
2022-10-18T08:11:45.662Z,4.40
2022-10-18T08:14:12.196Z,3.25
2022-10-18T08:16:38.792Z,2.63
2022-10-18T08:19:05.492Z,2.15
2022-10-18T08:21:32.242Z,1.75
2022-10-18T08:23:58.862Z,2.55
2022-10-18T08:26:25.404Z,1.92
2022-10-18T08:28:58.379Z,1.95
2022-10-18T08:31:36.539Z,1.80
2022-10-18T08:34:03.297Z,2.17
2022-10-18T08:36:29.865Z,1.73
2022-10-18T08:38:56.439Z,1.75
2022-10-18T08:44:21.112Z,2.75
2022-10-18T08:46:51.989Z,2.53
2022-10-18T08:49:26.741Z,2.75
2022-10-18T08:51:54.099Z,2.42
2022-10-18T08:57:01.565Z,1.30
2022-10-18T08:59:38.074Z,1.20
2022-10-18T09:02:35.305Z,1.52
2022-10-18T09:13:57.026Z,1.00
2022-10-18T09:22:04.962Z,1.48
2022-10-18T09:27:16.577Z,1.20
2022-10-18T09:35:24.427Z,1.25
2022-10-18T09:37:55.856Z,1.30
2022-10-18T09:40:28.233Z,0.80
2022-10-18T09:45:35.240Z,0.75
2022-10-18T09:48:24.073Z,1.48
2022-10-18T09:56:17.122Z,0.93
2022-10-18T10:01:25.394Z,1.30
2022-10-18T10:03:53.085Z,0.80
2022-10-18T10:11:40.332Z,2.33
2022-10-18T10:14:13.183Z,1.15
2022-10-18T10:16:49.269Z,1.08
2022-10-18T10:19:21.116Z,1.33
2022-10-18T10:21:50.484Z,1.23
2022-10-18T10:24:25.065Z,1.23
2022-10-18T10:27:16.876Z,1.10
2022-10-18T10:32:24.348Z,1.55
2022-10-18T10:34:51.762Z,1.98
2022-10-18T10:37:36.625Z,1.90
2022-10-18T10:40:19.066Z,1.95
2022-10-18T10:45:39.170Z,0.75
2022-10-18T10:48:16.757Z,0.30
2022-10-18T10:50:55.458Z,0.80
2022-10-18T10:53:44.379Z,0.55
2022-10-18T10:56:20.501Z,1.25
2022-10-18T10:58:47.975Z,0.60
2022-10-18T11:01:32.871Z,0.73
2022-10-18T11:04:02.865Z,1.27
2022-10-18T11:06:53.866Z,1.08
2022-10-18T11:09:28.927Z,0.70
2022-10-18T11:12:03.915Z,0.40
2022-10-18T11:14:37.730Z,0.57
2022-10-18T11:22:26.171Z,1.45
2022-10-18T11:30:35.034Z,0.43
2022-10-18T11:33:38.257Z,0.60
2022-10-18T11:39:21.259Z,0.55
2022-10-18T11:53:33.536Z,0.60
2022-10-18T11:56:30.691Z,0.40
2022-10-18T11:59:27.092Z,0.82
2022-10-18T12:04:49.030Z,0.47
2022-10-18T12:07:33.332Z,0.65
2022-10-18T12:10:01.621Z,0.20
2022-10-18T12:12:32.861Z,0.40
2022-10-18T12:15:03.889Z,0.45
2022-10-18T12:20:14.707Z,1.58
2022-10-18T12:25:25.207Z,0.73
2022-10-18T12:33:28.313Z,0.30
2022-10-18T12:38:40.985Z,0.55
2022-10-18T12:41:07.710Z,1.23
2022-10-18T12:43:38.591Z,0.50
2022-10-18T12:46:13.109Z,0.57
2022-10-18T12:48:45.663Z,0.50
2022-10-18T13:09:44.581Z,0.73
2022-10-18T13:15:27.715Z,0.70
2022-10-18T13:20:42.140Z,1.67
2022-10-18T13:26:12.903Z,2.13
2022-10-18T13:37:05.362Z,2.20
2022-10-18T13:39:33.129Z,2.78
2022-10-18T13:44:39.886Z,0.93
2022-10-18T13:50:22.239Z,1.52
2022-10-18T14:04:17.631Z,0.93
2022-10-18T14:06:46.930Z,0.70
2022-10-18T14:09:40.183Z,1.20
2022-10-18T14:12:49.958Z,0.93
2022-10-18T14:15:23.931Z,1.80
2022-10-18T14:17:59.128Z,0.70
2022-10-18T14:20:30.254Z,0.50
2022-10-18T14:23:23.071Z,0.70
2022-10-18T14:25:49.846Z,0.70
2022-10-18T14:28:21.706Z,0.52
2022-10-18T14:33:43.044Z,0.50
2022-10-18T14:36:15.645Z,0.43
2022-10-18T14:39:01.408Z,0.30
2022-10-18T14:47:13.074Z,0.65
2022-10-18T14:49:44.818Z,0.43
2022-10-18T14:52:16.299Z,0.45
2022-10-18T14:54:43.369Z,0.50
2022-10-18T14:57:19.319Z,0.77
2022-10-18T14:59:51.911Z,0.80
2022-10-18T15:02:24.196Z,0.57
2022-10-18T15:05:04.838Z,0.40
2022-10-18T15:07:32.740Z,0.40
2022-10-18T15:10:02.724Z,0.30
2022-10-18T15:12:40.901Z,0.43
2022-10-18T15:15:21.980Z,0.45
2022-10-18T15:20:25.172Z,0.75
2022-10-18T15:22:52.942Z,0.30
2022-10-18T15:25:30.856Z,0.68
2022-10-18T15:28:00.152Z,0.50
2022-10-18T15:30:41.025Z,0.40
2022-10-18T15:33:10.048Z,1.23
2022-10-18T15:35:38.857Z,0.50
2022-10-18T15:38:32.747Z,0.70
2022-10-18T15:40:59.441Z,0.75
2022-10-18T15:46:06.735Z,0.77
2022-10-18T15:48:38.657Z,1.15
2022-10-18T15:51:23.971Z,1.17
2022-10-18T15:53:53.947Z,1.60
2022-10-18T15:56:38.313Z,1.00
2022-10-18T15:59:20.390Z,1.98
2022-10-18T16:01:47.102Z,1.65
2022-10-18T16:04:24.415Z,2.08
2022-10-18T16:06:51.245Z,1.63
2022-10-18T16:09:19.746Z,1.55
2022-10-18T16:11:47.298Z,2.00
2022-10-18T16:14:13.936Z,2.33
2022-10-18T16:16:40.611Z,2.25
2022-10-18T16:19:08.067Z,1.40
2022-10-18T16:21:37.065Z,2.42
2022-10-18T16:24:04.011Z,1.42
2022-10-18T16:26:31.104Z,1.73
2022-10-18T16:28:59.104Z,1.85
2022-10-18T16:31:29.726Z,2.08
2022-10-18T16:33:56.820Z,1.33
2022-10-18T16:36:27.103Z,2.08
2022-10-18T16:38:55.121Z,1.42
2022-10-18T16:41:22.650Z,1.70
2022-10-18T16:43:50.478Z,2.38
2022-10-18T16:48:51.937Z,1.83
2022-10-18T16:51:18.733Z,2.03
2022-10-18T16:53:45.955Z,1.48
2022-10-18T16:56:17.768Z,1.90
2022-10-18T16:58:45.262Z,1.70
2022-10-18T17:01:14.186Z,1.70
2022-10-18T17:03:41.181Z,1.63
2022-10-18T17:06:15.510Z,1.50
2022-10-18T17:08:42.261Z,1.70
2022-10-18T17:11:10.585Z,1.73
2022-10-18T17:13:37.461Z,1.42
2022-10-18T17:16:04.667Z,1.38
2022-10-18T17:18:31.610Z,1.45
2022-10-18T17:21:02.671Z,1.83
2022-10-18T17:23:30.705Z,1.67
2022-10-18T17:26:05.442Z,1.58
2022-10-18T17:28:41.729Z,1.80
2022-10-18T17:31:08.436Z,1.70
2022-10-18T17:33:35.515Z,1.42
2022-10-18T17:36:02.298Z,1.50
2022-10-18T17:38:28.930Z,1.48
2022-10-18T17:40:55.525Z,1.73
2022-10-18T17:43:22.147Z,1.70
2022-10-18T17:45:51.011Z,1.88
2022-10-18T17:48:17.896Z,2.40
2022-10-18T17:50:44.878Z,1.73
2022-10-18T17:53:13.104Z,1.48
2022-10-18T17:55:40.404Z,2.17
2022-10-18T17:58:07.012Z,2.30
2022-10-18T18:00:33.686Z,1.30
2022-10-18T18:03:01.077Z,1.42
2022-10-18T18:05:33.349Z,1.42
2022-10-18T18:08:03.809Z,1.73
2022-10-18T18:10:33.682Z,1.35
2022-10-18T18:13:01.309Z,1.63
2022-10-18T18:15:28.053Z,1.95
2022-10-18T18:17:58.323Z,2.20
2022-10-18T18:20:26.028Z,2.20
2022-10-18T18:22:52.707Z,1.75
2022-10-18T18:25:19.373Z,1.48
2022-10-18T18:27:46.046Z,1.58
2022-10-18T18:30:12.940Z,1.52
2022-10-18T18:32:39.531Z,1.27
2022-10-18T18:35:06.333Z,1.17
2022-10-18T18:37:32.868Z,1.20
2022-10-18T18:39:59.417Z,1.35
2022-10-18T18:42:25.971Z,1.10
2022-10-18T18:44:52.577Z,1.35
2022-10-18T18:47:21.753Z,1.00
2022-10-18T18:49:48.834Z,1.45
2022-10-18T18:52:15.698Z,0.93
2022-10-18T18:54:42.254Z,1.00
2022-10-18T18:57:08.874Z,0.98
2022-10-18T18:59:35.551Z,1.33
2022-10-18T19:02:02.104Z,1.20
2022-10-18T19:04:29.190Z,1.40
2022-10-18T19:06:55.810Z,0.80
2022-10-18T19:09:22.942Z,0.80
2022-10-18T19:11:53.051Z,0.88
2022-10-18T19:19:24.274Z,1.00
2022-10-18T19:24:30.260Z,2.17
2022-10-18T19:27:00.965Z,2.17
2022-10-18T19:29:30.447Z,1.52
2022-10-18T19:32:00.046Z,1.65
2022-10-18T19:34:29.070Z,2.08
2022-10-18T19:36:56.398Z,2.28
2022-10-18T19:39:25.558Z,1.85
2022-10-18T19:41:55.291Z,1.88
2022-10-18T19:44:23.807Z,1.88
2022-10-18T19:46:51.229Z,2.40
2022-10-18T19:49:17.943Z,2.00
2022-10-18T19:51:44.905Z,1.58
2022-10-18T19:54:12.545Z,2.45
2022-10-18T19:56:39.504Z,2.47
2022-10-18T19:59:06.050Z,1.98
2022-10-18T20:01:32.860Z,2.33
2022-10-18T20:03:59.620Z,3.15
2022-10-18T20:06:26.571Z,2.38
2022-10-18T20:08:53.339Z,1.85
2022-10-18T20:11:23.386Z,2.38
2022-10-18T20:16:20.639Z,2.72
2022-10-18T20:18:48.969Z,2.65
2022-10-18T20:21:17.103Z,2.65
2022-10-18T20:23:44.578Z,2.45
2022-10-18T20:26:20.511Z,2.20
2022-10-18T20:28:56.687Z,2.47
2022-10-18T20:31:26.222Z,2.33
2022-10-18T20:33:58.736Z,2.17
2022-10-18T20:36:26.280Z,2.42
2022-10-18T20:38:53.624Z,2.53
2022-10-18T20:41:22.890Z,2.20
2022-10-18T20:43:55.787Z,2.35
2022-10-18T20:46:22.529Z,2.83
2022-10-18T20:48:50.377Z,2.55
2022-10-18T20:51:17.386Z,2.80
2022-10-18T20:53:44.224Z,2.00
2022-10-18T20:56:14.095Z,2.60
2022-10-18T20:58:42.657Z,2.83
2022-10-18T21:01:12.602Z,2.35
2022-10-18T21:03:41.758Z,3.03
2022-10-18T21:06:10.517Z,3.78
2022-10-18T21:08:38.002Z,2.55
2022-10-18T21:11:05.703Z,2.33
2022-10-18T21:13:32.892Z,2.55
2022-10-18T21:16:01.405Z,2.40
2022-10-18T21:18:30.134Z,2.45
2022-10-18T21:21:08.975Z,2.92
2022-10-18T21:23:35.628Z,2.05
2022-10-18T21:26:02.162Z,2.13
2022-10-18T21:28:28.896Z,2.75
2022-10-18T21:30:57.791Z,3.47
2022-10-18T21:33:24.398Z,3.05
2022-10-18T21:35:50.933Z,2.85
2022-10-18T21:38:17.529Z,2.83
2022-10-18T21:40:44.706Z,2.45
2022-10-18T21:43:11.883Z,2.83
2022-10-18T21:45:38.379Z,2.95
2022-10-18T21:48:05.238Z,3.42
2022-10-18T21:50:34.188Z,2.70
2022-10-18T21:53:00.847Z,3.40
2022-10-18T21:55:27.421Z,3.17
2022-10-18T21:57:54.009Z,3.50
2022-10-18T22:00:20.595Z,2.88
2022-10-18T22:02:47.225Z,3.08
2022-10-18T22:05:13.810Z,2.92
2022-10-18T22:07:40.396Z,2.88
2022-10-18T22:10:07.344Z,2.28
2022-10-18T22:12:33.965Z,2.83
2022-10-18T22:15:02.449Z,2.83
2022-10-18T22:17:28.993Z,3.00
2022-10-18T22:19:55.527Z,3.45
2022-10-18T22:22:23.553Z,2.58
2022-10-18T22:24:50.214Z,2.95
2022-10-18T22:27:16.887Z,2.78
2022-10-18T22:29:43.442Z,3.08
2022-10-18T22:32:10.061Z,3.25
2022-10-18T22:34:36.902Z,2.50
2022-10-18T22:37:03.536Z,3.13
2022-10-18T22:39:30.101Z,2.13
2022-10-18T22:41:57.382Z,2.15
2022-10-18T22:44:24.414Z,4.03
2022-10-18T22:46:50.977Z,2.00
2022-10-18T22:49:17.655Z,3.17
2022-10-18T22:51:44.353Z,2.88
2022-10-18T22:54:11.065Z,3.45
2022-10-18T22:56:37.695Z,2.95
2022-10-18T22:59:04.445Z,3.30
2022-10-18T23:01:30.981Z,2.13
2022-10-18T23:03:59.924Z,2.63
2022-10-18T23:06:31.672Z,2.88
2022-10-18T23:08:59.818Z,3.28
2022-10-18T23:11:27.637Z,3.08
2022-10-18T23:13:54.552Z,2.50
2022-10-18T23:16:21.414Z,3.20
2022-10-18T23:18:51.578Z,3.40
2022-10-18T23:21:19.150Z,3.22
2022-10-18T23:23:45.970Z,3.33
2022-10-18T23:26:15.261Z,2.67
2022-10-18T23:28:44.558Z,3.08
2022-10-18T23:31:14.665Z,2.38
2022-10-18T23:36:09.162Z,2.50
2022-10-18T23:38:36.830Z,3.08
2022-10-18T23:41:04.478Z,3.30
2022-10-18T23:43:31.420Z,4.25
2022-10-18T23:45:58.020Z,2.90
2022-10-18T23:48:24.705Z,3.72
2022-10-18T23:50:51.564Z,3.35
2022-10-18T23:53:20.255Z,2.95
2022-10-18T23:55:52.157Z,2.92
2022-10-18T23:58:18.825Z,3.85
